sensor_id;sensor_type;location;lat;lon;timestamp;temperature;humidity
80176;DHT22;71945;42.122;24.732;2023-10-09T00:00:50;24.20;30.40
80176;DHT22;71945;42.122;24.732;2023-10-09T00:03:20;24.20;30.50
80176;DHT22;71945;42.122;24.732;2023-10-09T00:05:49;24.30;30.30
80176;DHT22;71945;42.122;24.732;2023-10-09T00:08:18;24.40;30.20
80176;DHT22;71945;42.122;24.732;2023-10-09T00:10:47;24.40;30.10
80176;DHT22;71945;42.122;24.732;2023-10-09T00:13:24;24.40;29.80
80176;DHT22;71945;42.122;24.732;2023-10-09T00:16:03;24.40;30.00
80176;DHT22;71945;42.122;24.732;2023-10-09T00:18:34;24.30;30.20
80176;DHT22;71945;42.122;24.732;2023-10-09T00:21:01;24.30;30.00
80176;DHT22;71945;42.122;24.732;2023-10-09T00:23:36;24.40;30.00
80176;DHT22;71945;42.122;24.732;2023-10-09T00:26:02;24.30;30.10
80176;DHT22;71945;42.122;24.732;2023-10-09T00:28:38;24.30;30.60
80176;DHT22;71945;42.122;24.732;2023-10-09T00:31:09;24.20;30.30
80176;DHT22;71945;42.122;24.732;2023-10-09T00:33:44;24.20;30.60
80176;DHT22;71945;42.122;24.732;2023-10-09T00:36:11;24.20;30.60
80176;DHT22;71945;42.122;24.732;2023-10-09T00:38:38;24.20;30.80
80176;DHT22;71945;42.122;24.732;2023-10-09T00:41:30;24.20;30.80
80176;DHT22;71945;42.122;24.732;2023-10-09T00:44:00;24.20;30.60
80176;DHT22;71945;42.122;24.732;2023-10-09T00:46:26;24.20;30.30
80176;DHT22;71945;42.122;24.732;2023-10-09T00:48:57;24.20;30.40
80176;DHT22;71945;42.122;24.732;2023-10-09T00:51:26;24.20;30.00
80176;DHT22;71945;42.122;24.732;2023-10-09T00:53:55;24.20;30.00
80176;DHT22;71945;42.122;24.732;2023-10-09T00:56:23;24.10;29.70
80176;DHT22;71945;42.122;24.732;2023-10-09T00:59:01;24.10;29.70
80176;DHT22;71945;42.122;24.732;2023-10-09T01:01:46;24.10;31.00
80176;DHT22;71945;42.122;24.732;2023-10-09T01:04:31;24.10;29.80
80176;DHT22;71945;42.122;24.732;2023-10-09T01:07:04;24.10;29.70
80176;DHT22;71945;42.122;24.732;2023-10-09T01:09:42;24.10;29.30
80176;DHT22;71945;42.122;24.732;2023-10-09T01:12:11;24.00;29.60
80176;DHT22;71945;42.122;24.732;2023-10-09T01:14:43;24.10;29.30
80176;DHT22;71945;42.122;24.732;2023-10-09T01:17:09;24.10;29.30
80176;DHT22;71945;42.122;24.732;2023-10-09T01:19:36;24.10;29.20
80176;DHT22;71945;42.122;24.732;2023-10-09T01:22:02;24.20;29.40
80176;DHT22;71945;42.122;24.732;2023-10-09T01:24:38;24.20;29.50
80176;DHT22;71945;42.122;24.732;2023-10-09T01:27:04;24.10;29.10
80176;DHT22;71945;42.122;24.732;2023-10-09T01:29:36;24.00;29.30
80176;DHT22;71945;42.122;24.732;2023-10-09T01:32:02;24.00;30.20
80176;DHT22;71945;42.122;24.732;2023-10-09T01:37:11;23.90;29.50
80176;DHT22;71945;42.122;24.732;2023-10-09T01:39:44;23.90;29.60
80176;DHT22;71945;42.122;24.732;2023-10-09T01:42:11;23.90;29.80
80176;DHT22;71945;42.122;24.732;2023-10-09T01:44:48;24.00;29.80
80176;DHT22;71945;42.122;24.732;2023-10-09T01:47:14;23.90;29.50
80176;DHT22;71945;42.122;24.732;2023-10-09T01:49:40;24.00;29.50
80176;DHT22;71945;42.122;24.732;2023-10-09T01:52:12;24.00;29.70
80176;DHT22;71945;42.122;24.732;2023-10-09T01:54:45;24.00;29.80
80176;DHT22;71945;42.122;24.732;2023-10-09T01:57:18;24.10;29.90
80176;DHT22;71945;42.122;24.732;2023-10-09T01:59:51;24.10;29.80
80176;DHT22;71945;42.122;24.732;2023-10-09T02:02:19;24.10;29.90
80176;DHT22;71945;42.122;24.732;2023-10-09T02:05:04;24.10;30.10
80176;DHT22;71945;42.122;24.732;2023-10-09T02:07:39;24.20;30.00
80176;DHT22;71945;42.122;24.732;2023-10-09T02:10:17;24.20;30.00
80176;DHT22;71945;42.122;24.732;2023-10-09T02:13:02;24.30;30.00
80176;DHT22;71945;42.122;24.732;2023-10-09T02:15:37;24.30;30.00
80176;DHT22;71945;42.122;24.732;2023-10-09T02:18:15;24.30;29.90
80176;DHT22;71945;42.122;24.732;2023-10-09T02:23:27;24.20;29.80
80176;DHT22;71945;42.122;24.732;2023-10-09T02:26:07;24.20;29.90
80176;DHT22;71945;42.122;24.732;2023-10-09T02:28:34;24.20;29.90
80176;DHT22;71945;42.122;24.732;2023-10-09T02:31:01;24.20;29.90
80176;DHT22;71945;42.122;24.732;2023-10-09T02:33:35;24.10;29.80
80176;DHT22;71945;42.122;24.732;2023-10-09T02:36:02;23.90;30.10
80176;DHT22;71945;42.122;24.732;2023-10-09T02:38:34;23.80;30.20
80176;DHT22;71945;42.122;24.732;2023-10-09T02:41:01;23.60;30.20
80176;DHT22;71945;42.122;24.732;2023-10-09T02:43:32;23.40;30.60
80176;DHT22;71945;42.122;24.732;2023-10-09T02:46:13;23.10;30.60
80176;DHT22;71945;42.122;24.732;2023-10-09T02:48:46;22.90;31.10
80176;DHT22;71945;42.122;24.732;2023-10-09T02:51:25;22.80;30.90
80176;DHT22;71945;42.122;24.732;2023-10-09T02:54:01;22.70;31.00
80176;DHT22;71945;42.122;24.732;2023-10-09T02:56:46;22.40;31.20
80176;DHT22;71945;42.122;24.732;2023-10-09T02:59:22;22.30;31.40
80176;DHT22;71945;42.122;24.732;2023-10-09T03:01:48;22.10;31.80
80176;DHT22;71945;42.122;24.732;2023-10-09T03:04:15;22.10;31.90
80176;DHT22;71945;42.122;24.732;2023-10-09T03:06:41;22.10;31.60
80176;DHT22;71945;42.122;24.732;2023-10-09T03:09:20;22.00;31.80
80176;DHT22;71945;42.122;24.732;2023-10-09T03:11:54;22.00;31.60
80176;DHT22;71945;42.122;24.732;2023-10-09T03:14:20;22.00;31.50
80176;DHT22;71945;42.122;24.732;2023-10-09T03:16:47;22.00;31.20
80176;DHT22;71945;42.122;24.732;2023-10-09T03:19:16;22.00;31.10
80176;DHT22;71945;42.122;24.732;2023-10-09T03:21:42;22.00;31.00
80176;DHT22;71945;42.122;24.732;2023-10-09T03:24:08;22.00;30.80
80176;DHT22;71945;42.122;24.732;2023-10-09T03:26:34;21.80;30.70
80176;DHT22;71945;42.122;24.732;2023-10-09T03:29:00;21.70;31.40
80176;DHT22;71945;42.122;24.732;2023-10-09T03:31:38;21.60;31.60
80176;DHT22;71945;42.122;24.732;2023-10-09T03:34:06;21.50;31.30
80176;DHT22;71945;42.122;24.732;2023-10-09T03:36:36;21.50;31.30
80176;DHT22;71945;42.122;24.732;2023-10-09T03:39:07;21.40;31.50
80176;DHT22;71945;42.122;24.732;2023-10-09T03:41:52;21.30;31.70
80176;DHT22;71945;42.122;24.732;2023-10-09T03:44:19;21.20;31.70
80176;DHT22;71945;42.122;24.732;2023-10-09T03:46:46;21.20;31.90
80176;DHT22;71945;42.122;24.732;2023-10-09T03:49:11;21.20;31.90
80176;DHT22;71945;42.122;24.732;2023-10-09T03:51:39;21.10;32.00
80176;DHT22;71945;42.122;24.732;2023-10-09T03:54:05;21.10;32.00
80176;DHT22;71945;42.122;24.732;2023-10-09T03:56:34;21.00;32.30
80176;DHT22;71945;42.122;24.732;2023-10-09T03:59:00;21.00;32.40
80176;DHT22;71945;42.122;24.732;2023-10-09T04:01:30;20.90;32.50
80176;DHT22;71945;42.122;24.732;2023-10-09T04:04:03;20.80;31.40
80176;DHT22;71945;42.122;24.732;2023-10-09T04:06:32;20.60;31.60
80176;DHT22;71945;42.122;24.732;2023-10-09T04:09:01;20.40;31.80
80176;DHT22;71945;42.122;24.732;2023-10-09T04:11:48;20.00;34.90
80176;DHT22;71945;42.122;24.732;2023-10-09T04:14:23;19.70;33.40
80176;DHT22;71945;42.122;24.732;2023-10-09T04:16:58;19.60;35.60
80176;DHT22;71945;42.122;24.732;2023-10-09T04:19:32;19.60;36.00
80176;DHT22;71945;42.122;24.732;2023-10-09T04:22:14;19.70;34.60
80176;DHT22;71945;42.122;24.732;2023-10-09T04:24:51;19.50;33.70
80176;DHT22;71945;42.122;24.732;2023-10-09T04:27:17;19.30;34.60
80176;DHT22;71945;42.122;24.732;2023-10-09T04:29:47;19.20;34.10
80176;DHT22;71945;42.122;24.732;2023-10-09T04:32:15;19.20;36.10
80176;DHT22;71945;42.122;24.732;2023-10-09T04:34:44;19.10;35.80
80176;DHT22;71945;42.122;24.732;2023-10-09T04:37:21;19.20;35.20
80176;DHT22;71945;42.122;24.732;2023-10-09T04:40:03;19.10;34.60
80176;DHT22;71945;42.122;24.732;2023-10-09T04:42:58;19.30;38.00
80176;DHT22;71945;42.122;24.732;2023-10-09T04:45:25;19.40;34.50
80176;DHT22;71945;42.122;24.732;2023-10-09T04:48:09;19.40;34.80
80176;DHT22;71945;42.122;24.732;2023-10-09T04:50:36;19.40;33.40
80176;DHT22;71945;42.122;24.732;2023-10-09T04:53:12;19.40;32.60
80176;DHT22;71945;42.122;24.732;2023-10-09T04:55:37;19.40;32.40
80176;DHT22;71945;42.122;24.732;2023-10-09T04:58:04;19.30;32.30
80176;DHT22;71945;42.122;24.732;2023-10-09T05:00:32;19.20;32.10
80176;DHT22;71945;42.122;24.732;2023-10-09T05:03:00;19.10;32.10
80176;DHT22;71945;42.122;24.732;2023-10-09T05:05:51;19.10;32.20
80176;DHT22;71945;42.122;24.732;2023-10-09T05:08:25;19.00;32.30
80176;DHT22;71945;42.122;24.732;2023-10-09T05:10:52;18.90;32.10
80176;DHT22;71945;42.122;24.732;2023-10-09T05:16:15;18.60;32.50
80176;DHT22;71945;42.122;24.732;2023-10-09T05:18:45;18.50;32.80
80176;DHT22;71945;42.122;24.732;2023-10-09T05:21:24;18.50;32.90
80176;DHT22;71945;42.122;24.732;2023-10-09T05:23:56;18.60;32.80
80176;DHT22;71945;42.122;24.732;2023-10-09T05:26:41;18.60;32.70
80176;DHT22;71945;42.122;24.732;2023-10-09T05:29:26;18.60;32.30
80176;DHT22;71945;42.122;24.732;2023-10-09T05:31:58;18.50;32.00
80176;DHT22;71945;42.122;24.732;2023-10-09T05:34:41;18.30;32.20
80176;DHT22;71945;42.122;24.732;2023-10-09T05:37:29;18.30;32.30
80176;DHT22;71945;42.122;24.732;2023-10-09T05:40:05;18.30;32.00
80176;DHT22;71945;42.122;24.732;2023-10-09T05:42:47;18.30;31.80
80176;DHT22;71945;42.122;24.732;2023-10-09T05:45:23;18.40;31.00
80176;DHT22;71945;42.122;24.732;2023-10-09T05:48:23;18.40;30.40
80176;DHT22;71945;42.122;24.732;2023-10-09T05:50:49;18.40;30.10
80176;DHT22;71945;42.122;24.732;2023-10-09T05:53:33;18.30;30.10
80176;DHT22;71945;42.122;24.732;2023-10-09T05:56:11;18.40;30.00
80176;DHT22;71945;42.122;24.732;2023-10-09T05:58:55;18.50;30.00
80176;DHT22;71945;42.122;24.732;2023-10-09T06:01:56;18.60;30.10
80176;DHT22;71945;42.122;24.732;2023-10-09T06:04:28;18.60;29.80
80176;DHT22;71945;42.122;24.732;2023-10-09T06:07:20;18.60;30.00
80176;DHT22;71945;42.122;24.732;2023-10-09T06:09:50;18.70;30.30
80176;DHT22;71945;42.122;24.732;2023-10-09T06:12:20;18.70;30.00
80176;DHT22;71945;42.122;24.732;2023-10-09T06:14:55;18.70;29.70
80176;DHT22;71945;42.122;24.732;2023-10-09T06:17:32;18.70;29.70
80176;DHT22;71945;42.122;24.732;2023-10-09T06:20:10;18.80;29.80
80176;DHT22;71945;42.122;24.732;2023-10-09T06:22:55;18.70;29.40
80176;DHT22;71945;42.122;24.732;2023-10-09T06:25:42;18.60;29.40
80176;DHT22;71945;42.122;24.732;2023-10-09T06:28:17;18.70;29.60
80176;DHT22;71945;42.122;24.732;2023-10-09T06:30:45;18.70;29.30
80176;DHT22;71945;42.122;24.732;2023-10-09T06:33:13;18.70;34.70
80176;DHT22;71945;42.122;24.732;2023-10-09T06:35:46;18.90;29.70
80176;DHT22;71945;42.122;24.732;2023-10-09T06:38:19;18.90;29.10
80176;DHT22;71945;42.122;24.732;2023-10-09T06:40:50;18.90;28.90
80176;DHT22;71945;42.122;24.732;2023-10-09T06:43:31;18.90;29.00
80176;DHT22;71945;42.122;24.732;2023-10-09T06:46:02;18.90;28.90
80176;DHT22;71945;42.122;24.732;2023-10-09T06:48:46;19.00;28.90
80176;DHT22;71945;42.122;24.732;2023-10-09T06:51:21;19.10;29.80
80176;DHT22;71945;42.122;24.732;2023-10-09T06:53:51;19.10;28.60
80176;DHT22;71945;42.122;24.732;2023-10-09T06:56:26;19.10;28.60
80176;DHT22;71945;42.122;24.732;2023-10-09T06:58:59;19.10;28.50
80176;DHT22;71945;42.122;24.732;2023-10-09T07:01:30;19.10;28.60
80176;DHT22;71945;42.122;24.732;2023-10-09T07:03:56;19.00;28.80
80176;DHT22;71945;42.122;24.732;2023-10-09T07:06:40;19.00;32.00
80176;DHT22;71945;42.122;24.732;2023-10-09T07:09:06;19.20;29.30
80176;DHT22;71945;42.122;24.732;2023-10-09T07:11:32;19.40;29.10
80176;DHT22;71945;42.122;24.732;2023-10-09T07:14:15;19.50;29.00
80176;DHT22;71945;42.122;24.732;2023-10-09T07:17:06;19.60;29.80
80176;DHT22;71945;42.122;24.732;2023-10-09T07:19:42;19.70;29.30
80176;DHT22;71945;42.122;24.732;2023-10-09T07:22:09;19.90;28.90
80176;DHT22;71945;42.122;24.732;2023-10-09T07:25:01;20.10;28.60
80176;DHT22;71945;42.122;24.732;2023-10-09T07:27:40;20.10;28.40
80176;DHT22;71945;42.122;24.732;2023-10-09T07:30:20;20.20;28.10
80176;DHT22;71945;42.122;24.732;2023-10-09T07:33:05;20.30;27.70
80176;DHT22;71945;42.122;24.732;2023-10-09T07:35:34;20.40;28.10
80176;DHT22;71945;42.122;24.732;2023-10-09T07:38:06;20.50;27.40
80176;DHT22;71945;42.122;24.732;2023-10-09T07:40:36;20.50;27.50
80176;DHT22;71945;42.122;24.732;2023-10-09T07:43:21;20.50;27.60
80176;DHT22;71945;42.122;24.732;2023-10-09T07:45:53;20.50;27.40
80176;DHT22;71945;42.122;24.732;2023-10-09T07:48:25;20.50;27.50
80176;DHT22;71945;42.122;24.732;2023-10-09T07:51:11;20.50;27.90
80176;DHT22;71945;42.122;24.732;2023-10-09T07:53:36;20.60;27.40
80176;DHT22;71945;42.122;24.732;2023-10-09T07:56:09;20.60;27.50
80176;DHT22;71945;42.122;24.732;2023-10-09T07:58:34;20.60;27.90
80176;DHT22;71945;42.122;24.732;2023-10-09T08:01:12;20.70;27.50
80176;DHT22;71945;42.122;24.732;2023-10-09T08:04:04;20.70;27.60
80176;DHT22;71945;42.122;24.732;2023-10-09T08:06:39;20.60;27.50
80176;DHT22;71945;42.122;24.732;2023-10-09T08:09:10;20.60;27.80
80176;DHT22;71945;42.122;24.732;2023-10-09T08:11:56;20.70;27.60
80176;DHT22;71945;42.122;24.732;2023-10-09T08:14:43;20.70;27.60
80176;DHT22;71945;42.122;24.732;2023-10-09T08:17:11;20.90;27.90
80176;DHT22;71945;42.122;24.732;2023-10-09T08:19:40;21.00;27.70
80176;DHT22;71945;42.122;24.732;2023-10-09T08:22:30;21.20;27.50
80176;DHT22;71945;42.122;24.732;2023-10-09T08:25:10;21.50;27.20
80176;DHT22;71945;42.122;24.732;2023-10-09T08:27:54;21.80;26.90
80176;DHT22;71945;42.122;24.732;2023-10-09T08:30:21;22.10;26.70
80176;DHT22;71945;42.122;24.732;2023-10-09T08:32:52;22.30;26.00
80176;DHT22;71945;42.122;24.732;2023-10-09T08:35:38;22.50;25.90
80176;DHT22;71945;42.122;24.732;2023-10-09T08:38:13;22.60;25.60
80176;DHT22;71945;42.122;24.732;2023-10-09T08:40:42;22.80;25.70
80176;DHT22;71945;42.122;24.732;2023-10-09T08:43:20;23.00;25.80
80176;DHT22;71945;42.122;24.732;2023-10-09T08:45:48;23.30;25.10
80176;DHT22;71945;42.122;24.732;2023-10-09T08:48:14;23.50;24.80
80176;DHT22;71945;42.122;24.732;2023-10-09T08:50:47;23.50;24.20
80176;DHT22;71945;42.122;24.732;2023-10-09T08:53:13;23.60;24.50
80176;DHT22;71945;42.122;24.732;2023-10-09T08:55:40;23.60;24.80
80176;DHT22;71945;42.122;24.732;2023-10-09T08:58:07;23.70;24.60
80176;DHT22;71945;42.122;24.732;2023-10-09T09:00:42;23.90;24.40
80176;DHT22;71945;42.122;24.732;2023-10-09T09:03:15;23.80;24.00
80176;DHT22;71945;42.122;24.732;2023-10-09T09:05:47;23.70;24.00
80176;DHT22;71945;42.122;24.732;2023-10-09T09:08:25;23.80;24.40
80176;DHT22;71945;42.122;24.732;2023-10-09T09:11:00;23.90;24.30
80176;DHT22;71945;42.122;24.732;2023-10-09T09:13:45;24.00;24.40
80176;DHT22;71945;42.122;24.732;2023-10-09T09:16:21;24.20;24.50
80176;DHT22;71945;42.122;24.732;2023-10-09T09:19:02;24.40;24.30
80176;DHT22;71945;42.122;24.732;2023-10-09T09:21:49;24.50;24.30
80176;DHT22;71945;42.122;24.732;2023-10-09T09:24:20;24.70;24.30
80176;DHT22;71945;42.122;24.732;2023-10-09T09:26:53;24.90;23.60
80176;DHT22;71945;42.122;24.732;2023-10-09T09:32:03;25.00;23.00
80176;DHT22;71945;42.122;24.732;2023-10-09T09:34:51;25.10;23.60
80176;DHT22;71945;42.122;24.732;2023-10-09T09:37:24;25.30;23.40
80176;DHT22;71945;42.122;24.732;2023-10-09T09:40:10;25.60;23.30
80176;DHT22;71945;42.122;24.732;2023-10-09T09:42:43;25.70;22.70
80176;DHT22;71945;42.122;24.732;2023-10-09T09:45:14;25.80;22.20
80176;DHT22;71945;42.122;24.732;2023-10-09T09:47:45;25.90;21.90
80176;DHT22;71945;42.122;24.732;2023-10-09T09:50:17;26.10;22.00
80176;DHT22;71945;42.122;24.732;2023-10-09T09:52:54;26.20;21.70
80176;DHT22;71945;42.122;24.732;2023-10-09T09:55:19;26.50;21.70
80176;DHT22;71945;42.122;24.732;2023-10-09T09:57:57;26.50;21.10
80176;DHT22;71945;42.122;24.732;2023-10-09T10:00:30;26.60;21.00
80176;DHT22;71945;42.122;24.732;2023-10-09T10:03:13;26.70;20.80
80176;DHT22;71945;42.122;24.732;2023-10-09T10:05:42;26.70;20.50
80176;DHT22;71945;42.122;24.732;2023-10-09T10:08:16;26.80;20.90
80176;DHT22;71945;42.122;24.732;2023-10-09T10:10:49;26.90;20.90
80176;DHT22;71945;42.122;24.732;2023-10-09T10:16:15;27.40;20.50
80176;DHT22;71945;42.122;24.732;2023-10-09T10:19:01;27.60;20.20
80176;DHT22;71945;42.122;24.732;2023-10-09T10:21:47;27.90;20.10
80176;DHT22;71945;42.122;24.732;2023-10-09T10:25:01;28.00;19.60
80176;DHT22;71945;42.122;24.732;2023-10-09T10:27:18;28.10;19.40
80176;DHT22;71945;42.122;24.732;2023-10-09T10:32:58;28.40;19.40
80176;DHT22;71945;42.122;24.732;2023-10-09T10:35:35;28.40;19.30
80176;DHT22;71945;42.122;24.732;2023-10-09T10:38:27;28.50;19.00
80176;DHT22;71945;42.122;24.732;2023-10-09T10:43:36;28.60;18.70
80176;DHT22;71945;42.122;24.732;2023-10-09T10:46:22;28.80;18.70
80176;DHT22;71945;42.122;24.732;2023-10-09T10:49:01;28.90;18.50
80176;DHT22;71945;42.122;24.732;2023-10-09T10:51:40;29.10;18.10
80176;DHT22;71945;42.122;24.732;2023-10-09T10:54:07;29.10;18.30
80176;DHT22;71945;42.122;24.732;2023-10-09T10:56:52;29.20;18.50
80176;DHT22;71945;42.122;24.732;2023-10-09T10:59:18;29.40;18.40
80176;DHT22;71945;42.122;24.732;2023-10-09T11:01:52;29.60;18.10
80176;DHT22;71945;42.122;24.732;2023-10-09T11:04:25;29.70;17.70
80176;DHT22;71945;42.122;24.732;2023-10-09T11:07:11;29.70;17.60
80176;DHT22;71945;42.122;24.732;2023-10-09T11:09:56;29.70;17.70
80176;DHT22;71945;42.122;24.732;2023-10-09T11:12:42;29.90;17.60
80176;DHT22;71945;42.122;24.732;2023-10-09T11:15:11;30.20;17.50
80176;DHT22;71945;42.122;24.732;2023-10-09T11:18:00;30.40;17.30
80176;DHT22;71945;42.122;24.732;2023-10-09T11:20:31;30.60;16.90
80176;DHT22;71945;42.122;24.732;2023-10-09T11:22:59;30.80;16.80
80176;DHT22;71945;42.122;24.732;2023-10-09T11:25:46;31.00;16.90
80176;DHT22;71945;42.122;24.732;2023-10-09T11:28:40;31.20;16.90
80176;DHT22;71945;42.122;24.732;2023-10-09T11:31:15;31.40;16.30
80176;DHT22;71945;42.122;24.732;2023-10-09T11:33:47;31.50;16.40
80176;DHT22;71945;42.122;24.732;2023-10-09T11:36:15;31.60;16.30
80176;DHT22;71945;42.122;24.732;2023-10-09T11:38:41;31.70;15.80
80176;DHT22;71945;42.122;24.732;2023-10-09T11:41:17;31.70;15.50
80176;DHT22;71945;42.122;24.732;2023-10-09T11:43:49;31.90;15.30
80176;DHT22;71945;42.122;24.732;2023-10-09T11:46:19;31.70;14.80
80176;DHT22;71945;42.122;24.732;2023-10-09T11:49:08;31.50;15.10
80176;DHT22;71945;42.122;24.732;2023-10-09T11:51:46;31.40;15.30
80176;DHT22;71945;42.122;24.732;2023-10-09T11:54:34;31.40;15.10
80176;DHT22;71945;42.122;24.732;2023-10-09T11:57:00;31.40;15.20
80176;DHT22;71945;42.122;24.732;2023-10-09T11:59:27;31.40;15.20
80176;DHT22;71945;42.122;24.732;2023-10-09T12:01:53;31.50;15.50
80176;DHT22;71945;42.122;24.732;2023-10-09T12:04:20;31.60;15.20
80176;DHT22;71945;42.122;24.732;2023-10-09T12:06:58;31.60;14.90
80176;DHT22;71945;42.122;24.732;2023-10-09T12:09:33;31.50;14.70
80176;DHT22;71945;42.122;24.732;2023-10-09T12:12:02;31.40;15.00
80176;DHT22;71945;42.122;24.732;2023-10-09T12:14:28;31.60;15.00
80176;DHT22;71945;42.122;24.732;2023-10-09T12:16:59;31.70;14.90
80176;DHT22;71945;42.122;24.732;2023-10-09T12:19:33;31.90;15.10
80176;DHT22;71945;42.122;24.732;2023-10-09T12:21:59;32.10;14.70
80176;DHT22;71945;42.122;24.732;2023-10-09T12:24:33;32.10;14.80
80176;DHT22;71945;42.122;24.732;2023-10-09T12:26:59;32.40;15.00
80176;DHT22;71945;42.122;24.732;2023-10-09T12:29:26;32.70;15.00
80176;DHT22;71945;42.122;24.732;2023-10-09T12:31:58;32.90;14.40
80176;DHT22;71945;42.122;24.732;2023-10-09T12:34:25;33.00;14.30
80176;DHT22;71945;42.122;24.732;2023-10-09T12:36:55;33.00;14.00
80176;DHT22;71945;42.122;24.732;2023-10-09T12:39:22;33.20;13.70
80176;DHT22;71945;42.122;24.732;2023-10-09T12:41:48;33.40;14.00
80176;DHT22;71945;42.122;24.732;2023-10-09T12:44:15;33.40;13.60
80176;DHT22;71945;42.122;24.732;2023-10-09T12:46:41;33.50;13.60
80176;DHT22;71945;42.122;24.732;2023-10-09T12:49:08;33.60;13.50
80176;DHT22;71945;42.122;24.732;2023-10-09T12:51:34;33.70;13.70
80176;DHT22;71945;42.122;24.732;2023-10-09T12:54:00;33.80;13.40
80176;DHT22;71945;42.122;24.732;2023-10-09T12:56:27;33.80;13.00
80176;DHT22;71945;42.122;24.732;2023-10-09T12:59:01;33.90;12.80
80176;DHT22;71945;42.122;24.732;2023-10-09T13:01:30;33.90;13.00
80176;DHT22;71945;42.122;24.732;2023-10-09T13:04:00;34.00;12.80
80176;DHT22;71945;42.122;24.732;2023-10-09T13:06:26;34.00;12.80
80176;DHT22;71945;42.122;24.732;2023-10-09T13:08:53;34.00;12.80
80176;DHT22;71945;42.122;24.732;2023-10-09T13:11:18;34.10;12.70
80176;DHT22;71945;42.122;24.732;2023-10-09T13:13:46;34.10;12.60
80176;DHT22;71945;42.122;24.732;2023-10-09T13:16:14;34.20;12.20
80176;DHT22;71945;42.122;24.732;2023-10-09T13:18:55;34.10;12.20
80176;DHT22;71945;42.122;24.732;2023-10-09T13:21:26;33.90;12.40
80176;DHT22;71945;42.122;24.732;2023-10-09T13:23:53;33.90;12.60
80176;DHT22;71945;42.122;24.732;2023-10-09T13:26:23;33.80;12.40
80176;DHT22;71945;42.122;24.732;2023-10-09T13:29:02;33.60;12.40
80176;DHT22;71945;42.122;24.732;2023-10-09T13:31:29;33.70;13.00
80176;DHT22;71945;42.122;24.732;2023-10-09T13:33:57;33.60;12.60
80176;DHT22;71945;42.122;24.732;2023-10-09T13:36:25;33.50;12.60
80176;DHT22;71945;42.122;24.732;2023-10-09T13:38:54;33.60;12.60
80176;DHT22;71945;42.122;24.732;2023-10-09T13:41:21;33.60;12.70
80176;DHT22;71945;42.122;24.732;2023-10-09T13:43:47;33.80;12.90
80176;DHT22;71945;42.122;24.732;2023-10-09T13:46:13;33.90;12.80
80176;DHT22;71945;42.122;24.732;2023-10-09T13:48:43;34.10;12.50
80176;DHT22;71945;42.122;24.732;2023-10-09T13:51:12;34.20;12.30
80176;DHT22;71945;42.122;24.732;2023-10-09T13:53:47;34.40;12.10
80176;DHT22;71945;42.122;24.732;2023-10-09T13:56:17;34.60;12.10
80176;DHT22;71945;42.122;24.732;2023-10-09T13:58:48;34.70;11.80
80176;DHT22;71945;42.122;24.732;2023-10-09T14:01:15;34.80;11.90
80176;DHT22;71945;42.122;24.732;2023-10-09T14:03:47;35.00;12.40
80176;DHT22;71945;42.122;24.732;2023-10-09T14:06:16;35.00;11.60
80176;DHT22;71945;42.122;24.732;2023-10-09T14:08:45;35.00;11.50
80176;DHT22;71945;42.122;24.732;2023-10-09T14:11:11;35.10;11.60
80176;DHT22;71945;42.122;24.732;2023-10-09T14:13:41;35.00;11.00
80176;DHT22;71945;42.122;24.732;2023-10-09T14:16:08;34.80;11.00
80176;DHT22;71945;42.122;24.732;2023-10-09T14:18:52;34.60;11.00
80176;DHT22;71945;42.122;24.732;2023-10-09T14:21:20;34.50;11.30
80176;DHT22;71945;42.122;24.732;2023-10-09T14:23:45;34.40;11.40
80176;DHT22;71945;42.122;24.732;2023-10-09T14:26:14;34.30;11.40
80176;DHT22;71945;42.122;24.732;2023-10-09T14:28:40;34.10;11.70
80176;DHT22;71945;42.122;24.732;2023-10-09T14:31:08;33.90;11.60
80176;DHT22;71945;42.122;24.732;2023-10-09T14:33:37;33.70;11.70
80176;DHT22;71945;42.122;24.732;2023-10-09T14:36:04;33.40;12.00
80176;DHT22;71945;42.122;24.732;2023-10-09T14:38:31;33.10;12.40
80176;DHT22;71945;42.122;24.732;2023-10-09T14:40:58;32.90;12.50
80176;DHT22;71945;42.122;24.732;2023-10-09T14:43:25;32.80;12.70
80176;DHT22;71945;42.122;24.732;2023-10-09T14:45:55;32.70;12.80
80176;DHT22;71945;42.122;24.732;2023-10-09T14:48:21;32.60;12.90
80176;DHT22;71945;42.122;24.732;2023-10-09T14:50:52;32.40;13.20
80176;DHT22;71945;42.122;24.732;2023-10-09T14:53:22;32.40;13.20
80176;DHT22;71945;42.122;24.732;2023-10-09T14:55:58;32.20;13.10
80176;DHT22;71945;42.122;24.732;2023-10-09T14:58:29;31.90;13.40
80176;DHT22;71945;42.122;24.732;2023-10-09T15:01:06;31.60;13.70
80176;DHT22;71945;42.122;24.732;2023-10-09T15:03:35;31.20;13.90
80176;DHT22;71945;42.122;24.732;2023-10-09T15:06:03;30.90;14.30
80176;DHT22;71945;42.122;24.732;2023-10-09T15:08:29;30.60;14.50
80176;DHT22;71945;42.122;24.732;2023-10-09T15:10:55;30.30;14.80
80176;DHT22;71945;42.122;24.732;2023-10-09T15:13:24;30.10;15.10
80176;DHT22;71945;42.122;24.732;2023-10-09T15:15:56;29.90;15.40
80176;DHT22;71945;42.122;24.732;2023-10-09T15:18:22;29.70;15.80
80176;DHT22;71945;42.122;24.732;2023-10-09T15:20:48;29.60;15.80
80176;DHT22;71945;42.122;24.732;2023-10-09T15:23:14;29.50;16.00
80176;DHT22;71945;42.122;24.732;2023-10-09T15:25:40;29.40;16.00
80176;DHT22;71945;42.122;24.732;2023-10-09T15:28:10;29.10;16.30
80176;DHT22;71945;42.122;24.732;2023-10-09T15:30:38;28.80;16.50
80176;DHT22;71945;42.122;24.732;2023-10-09T15:33:07;28.50;17.00
80176;DHT22;71945;42.122;24.732;2023-10-09T15:35:34;28.20;17.60
80176;DHT22;71945;42.122;24.732;2023-10-09T15:38:01;28.00;17.80
80176;DHT22;71945;42.122;24.732;2023-10-09T15:40:29;27.70;18.60
80176;DHT22;71945;42.122;24.732;2023-10-09T15:42:59;27.50;18.50
80176;DHT22;71945;42.122;24.732;2023-10-09T15:45:25;27.30;18.60
80176;DHT22;71945;42.122;24.732;2023-10-09T15:47:54;27.00;18.90
80176;DHT22;71945;42.122;24.732;2023-10-09T15:50:21;26.80;19.50
80176;DHT22;71945;42.122;24.732;2023-10-09T15:52:53;26.60;19.80
80176;DHT22;71945;42.122;24.732;2023-10-09T15:55:23;26.40;20.00
80176;DHT22;71945;42.122;24.732;2023-10-09T15:57:52;26.30;20.40
80176;DHT22;71945;42.122;24.732;2023-10-09T16:00:18;26.10;20.50
80176;DHT22;71945;42.122;24.732;2023-10-09T16:02:46;26.10;21.00
80176;DHT22;71945;42.122;24.732;2023-10-09T16:05:12;26.10;20.90
80176;DHT22;71945;42.122;24.732;2023-10-09T16:07:39;26.10;21.00
80176;DHT22;71945;42.122;24.732;2023-10-09T16:10:08;26.20;21.00